createdAt,value
2022-11-16T00:01:23.267Z,10.63
2022-11-16T00:06:25.975Z,10.64
2022-11-16T00:11:38.574Z,10.65
2022-11-16T00:16:40.518Z,10.64
2022-11-16T00:21:42.617Z,10.65
2022-11-16T00:26:45.134Z,10.66
2022-11-16T00:31:48.982Z,10.67
2022-11-16T00:36:51.069Z,10.65
2022-11-16T00:41:53.624Z,10.65
2022-11-16T00:46:55.333Z,10.65
2022-11-16T00:51:56.986Z,10.63
2022-11-16T00:56:59.203Z,10.61
2022-11-16T01:02:01.017Z,10.62
2022-11-16T01:07:03.130Z,10.59
2022-11-16T01:12:11.151Z,10.60
2022-11-16T01:17:14.446Z,10.60
2022-11-16T01:22:16.266Z,10.58
2022-11-16T01:27:18.236Z,10.58
2022-11-16T01:32:21.016Z,10.54
2022-11-16T01:37:23.362Z,10.54
2022-11-16T01:42:28.430Z,10.56
2022-11-16T01:47:33.937Z,10.52
2022-11-16T01:52:42.201Z,10.51
2022-11-16T01:57:46.342Z,10.50
2022-11-16T02:02:48.422Z,10.53
2022-11-16T02:08:35.724Z,10.48
2022-11-16T02:14:06.200Z,10.51
2022-11-16T02:19:40.450Z,10.50
2022-11-16T02:25:00.267Z,10.50
2022-11-16T02:30:03.682Z,10.51
2022-11-16T02:35:12.870Z,10.53
2022-11-16T02:40:17.472Z,10.56
2022-11-16T02:45:48.517Z,10.59
2022-11-16T02:50:53.405Z,10.57
2022-11-16T02:55:56.442Z,10.58
2022-11-16T03:01:06.651Z,10.57
2022-11-16T03:06:19.770Z,10.56
2022-11-16T03:11:41.638Z,10.58
2022-11-16T03:16:48.948Z,10.56
2022-11-16T03:21:59.831Z,10.54
2022-11-16T03:27:10.063Z,10.55
2022-11-16T03:32:42.929Z,10.51
2022-11-16T03:37:50.090Z,10.51
2022-11-16T03:43:55.882Z,10.55
2022-11-16T03:49:00.633Z,10.52
2022-11-16T03:54:06.359Z,10.52
2022-11-16T03:59:10.220Z,10.55
2022-11-16T04:04:32.644Z,10.56
2022-11-16T04:09:53.371Z,10.59
2022-11-16T04:15:13.876Z,10.60
2022-11-16T04:20:34.540Z,10.60
2022-11-16T04:25:39.613Z,10.62
2022-11-16T04:31:09.410Z,10.58
2022-11-16T04:36:36.049Z,11.74
2022-11-16T04:41:56.506Z,10.61
2022-11-16T04:47:08.191Z,10.57
2022-11-16T04:52:12.677Z,10.58
2022-11-16T04:57:14.812Z,10.58
2022-11-16T05:02:17.528Z,10.58
2022-11-16T05:07:25.339Z,10.55
2022-11-16T05:12:33.522Z,10.52
2022-11-16T05:17:37.854Z,10.50
2022-11-16T05:22:45.450Z,10.47
2022-11-16T05:27:47.218Z,10.44
2022-11-16T05:32:51.323Z,10.44
2022-11-16T05:37:55.338Z,10.44
2022-11-16T05:42:57.986Z,10.44
2022-11-16T05:48:01.314Z,10.46
2022-11-16T05:53:03.515Z,10.42
2022-11-16T05:58:05.464Z,10.41
2022-11-16T06:03:08.879Z,10.36
2022-11-16T06:08:11.687Z,10.34
2022-11-16T06:13:13.562Z,10.28
2022-11-16T06:18:16.102Z,10.24
2022-11-16T06:23:18.299Z,10.24
2022-11-16T06:28:21.265Z,10.21
2022-11-16T06:33:23.526Z,10.19
2022-11-16T06:38:25.685Z,10.14
2022-11-16T06:43:29.342Z,10.00
2022-11-16T06:48:31.775Z,9.98
2022-11-16T06:53:33.983Z,9.92
2022-11-16T06:58:37.123Z,9.78
2022-11-16T07:03:40.129Z,9.64
2022-11-16T07:08:48.055Z,9.42
2022-11-16T07:13:53.736Z,9.29
2022-11-16T07:18:59.359Z,9.07
2022-11-16T07:24:04.270Z,9.15
2022-11-16T07:29:06.941Z,9.01
2022-11-16T07:34:11.925Z,8.93
2022-11-16T07:39:29.050Z,8.85
2022-11-16T07:45:24.482Z,8.95
2022-11-16T07:50:31.642Z,8.94
2022-11-16T07:55:41.612Z,9.02
2022-11-16T08:00:44.138Z,9.06
2022-11-16T08:05:59.060Z,9.27
2022-11-16T08:11:06.339Z,9.49
2022-11-16T08:16:11.829Z,9.41
2022-11-16T08:21:16.721Z,9.36
2022-11-16T08:26:22.115Z,9.30
2022-11-16T08:31:31.647Z,9.32
2022-11-16T08:36:43.288Z,9.38
2022-11-16T08:41:45.706Z,9.32
2022-11-16T08:46:47.850Z,9.39
2022-11-16T08:52:00.159Z,9.57
2022-11-16T08:57:01.886Z,9.73
2022-11-16T09:02:06.513Z,9.87
2022-11-16T09:07:08.393Z,9.94
2022-11-16T09:12:10.153Z,9.92
2022-11-16T09:17:11.726Z,9.91
2022-11-16T09:22:13.300Z,9.94
2022-11-16T09:27:15.217Z,9.99
2022-11-16T09:32:16.752Z,10.00
2022-11-16T09:37:19.456Z,10.14
2022-11-16T09:42:58.529Z,10.09
2022-11-16T09:48:04.003Z,10.14
2022-11-16T09:53:20.604Z,10.07
2022-11-16T09:58:31.622Z,10.25
2022-11-16T10:03:40.759Z,10.02
2022-11-16T10:08:45.924Z,10.06
2022-11-16T10:13:47.469Z,10.07
2022-11-16T10:18:59.600Z,10.48
2022-11-16T10:24:25.313Z,10.90
2022-11-16T10:29:53.636Z,11.16
2022-11-16T10:35:01.217Z,10.48
2022-11-16T10:40:24.554Z,10.55
2022-11-16T10:45:37.883Z,11.71
2022-11-16T10:50:49.019Z,11.93
2022-11-16T10:56:12.169Z,11.86
2022-11-16T11:01:14.031Z,11.83
2022-11-16T11:06:16.129Z,11.92
2022-11-16T11:11:42.086Z,11.52
2022-11-16T11:16:43.931Z,11.15
2022-11-16T11:21:47.510Z,11.87
2022-11-16T11:26:58.631Z,11.26
2022-11-16T11:38:46.035Z,12.11
2022-11-16T11:44:05.917Z,12.47
2022-11-16T11:49:20.917Z,12.57
2022-11-16T11:54:29.796Z,13.12
2022-11-16T11:59:31.519Z,12.10
2022-11-16T12:04:56.125Z,12.20
2022-11-16T12:10:23.415Z,12.62
2022-11-16T12:15:25.109Z,11.65
2022-11-16T12:20:38.176Z,11.50
2022-11-16T12:25:54.291Z,11.54
2022-11-16T12:30:59.030Z,11.27
2022-11-16T12:36:23.356Z,12.44
2022-11-16T12:41:46.466Z,12.77
2022-11-16T12:47:23.416Z,12.67
2022-11-16T12:53:04.829Z,11.58
2022-11-16T12:58:24.608Z,10.92
2022-11-16T13:03:32.619Z,11.02
2022-11-16T13:08:55.754Z,10.90
2022-11-16T13:14:04.292Z,10.97
2022-11-16T13:19:10.178Z,11.09
2022-11-16T13:24:23.828Z,10.98
2022-11-16T13:29:33.860Z,11.16
2022-11-16T13:34:38.769Z,11.48
2022-11-16T13:39:58.821Z,11.34
2022-11-16T13:45:32.447Z,11.52
2022-11-16T13:50:38.845Z,12.79
2022-11-16T13:55:46.609Z,12.79
2022-11-16T14:01:01.664Z,12.41
2022-11-16T14:06:20.502Z,12.29
2022-11-16T14:11:38.822Z,12.27
2022-11-16T14:16:44.842Z,12.34
2022-11-16T14:22:07.722Z,12.13
2022-11-16T14:27:31.006Z,12.03
2022-11-16T14:32:44.433Z,11.80
2022-11-16T14:37:46.055Z,11.35
2022-11-16T14:43:15.390Z,11.36
2022-11-16T14:48:22.296Z,11.24
2022-11-16T14:53:25.514Z,11.07
2022-11-16T14:58:27.220Z,10.83
2022-11-16T15:03:34.452Z,10.81
2022-11-16T15:08:47.268Z,10.69
2022-11-16T15:13:55.867Z,10.54
2022-11-16T15:19:00.888Z,10.21
2022-11-16T15:24:30.474Z,10.17
2022-11-16T15:29:34.551Z,9.98
2022-11-16T15:34:39.328Z,9.81
2022-11-16T15:39:42.213Z,9.60
2022-11-16T15:45:09.444Z,9.71
2022-11-16T15:50:19.369Z,9.64
2022-11-16T15:55:39.562Z,9.67
2022-11-16T16:00:42.030Z,9.66
2022-11-16T16:05:55.224Z,9.69
2022-11-16T16:11:16.075Z,9.72
2022-11-16T16:16:38.266Z,9.87
2022-11-16T16:21:43.107Z,9.80
2022-11-16T16:26:44.653Z,9.75
2022-11-16T16:31:47.216Z,9.82
2022-11-16T16:37:00.985Z,9.83
2022-11-16T16:42:03.155Z,9.85
2022-11-16T16:47:04.950Z,9.73
2022-11-16T16:52:07.559Z,9.73
2022-11-16T16:57:16.592Z,9.78
2022-11-16T17:02:18.205Z,9.76
2022-11-16T17:07:19.885Z,9.76
2022-11-16T17:12:21.519Z,9.82
2022-11-16T17:17:26.057Z,9.78
2022-11-16T17:22:27.664Z,9.68
2022-11-16T17:27:30.056Z,9.73
2022-11-16T17:32:31.569Z,9.63
2022-11-16T17:37:33.150Z,9.58
2022-11-16T17:42:35.666Z,9.52
2022-11-16T17:47:37.380Z,9.56
2022-11-16T17:52:38.961Z,9.48
2022-11-16T17:57:40.522Z,9.43
2022-11-16T18:02:42.110Z,9.36
2022-11-16T18:07:43.680Z,9.20
2022-11-16T18:12:45.432Z,9.10
2022-11-16T18:17:47.232Z,8.95
2022-11-16T18:22:48.790Z,8.78
2022-11-16T18:27:55.241Z,8.78
2022-11-16T18:32:56.782Z,8.76
2022-11-16T18:37:58.344Z,8.75
2022-11-16T18:42:59.911Z,8.77
2022-11-16T18:48:01.449Z,8.69
2022-11-16T18:53:03.299Z,8.64
2022-11-16T18:58:22.571Z,8.73
2022-11-16T19:03:27.416Z,8.69
2022-11-16T19:08:30.123Z,8.68
2022-11-16T19:13:31.945Z,8.60
2022-11-16T19:18:35.380Z,8.71
2022-11-16T19:23:45.057Z,8.64
2022-11-16T19:28:49.086Z,8.61
2022-11-16T19:33:55.131Z,8.65
2022-11-16T19:38:58.969Z,8.71
2022-11-16T19:44:01.926Z,8.88
2022-11-16T19:49:04.067Z,8.88
2022-11-16T19:54:06.468Z,8.89
2022-11-16T19:59:08.541Z,9.01
2022-11-16T20:04:10.658Z,9.20
2022-11-16T20:09:14.658Z,9.29
2022-11-16T20:14:16.469Z,9.31
2022-11-16T20:19:19.256Z,9.28
2022-11-16T20:24:21.088Z,9.35
2022-11-16T20:29:22.819Z,9.38
2022-11-16T20:34:24.445Z,9.33
2022-11-16T20:39:26.326Z,9.35
2022-11-16T20:44:30.049Z,9.26
2022-11-16T20:49:31.570Z,9.20
2022-11-16T20:54:33.727Z,9.18
2022-11-16T20:59:35.371Z,9.25
2022-11-16T21:04:36.980Z,9.32
2022-11-16T21:09:58.876Z,9.35
2022-11-16T21:15:00.536Z,9.34
2022-11-16T21:20:28.086Z,9.49
2022-11-16T21:25:24.272Z,9.53
2022-11-16T21:30:26.160Z,9.60
2022-11-16T21:35:30.364Z,9.57
2022-11-16T21:40:31.926Z,9.67
2022-11-16T21:45:35.252Z,9.67
2022-11-16T21:50:37.252Z,9.72
2022-11-16T21:55:39.018Z,9.81
2022-11-16T22:00:40.533Z,9.78
2022-11-16T22:06:00.982Z,9.72
2022-11-16T22:11:02.469Z,9.77
2022-11-16T22:16:05.677Z,9.74
2022-11-16T22:21:07.774Z,9.69
2022-11-16T22:26:11.682Z,9.65
2022-11-16T22:31:14.696Z,9.66
2022-11-16T22:36:16.330Z,9.61
2022-11-16T22:41:17.945Z,9.53
2022-11-16T22:46:44.407Z,9.60
2022-11-16T22:51:49.294Z,9.58
2022-11-16T22:56:50.834Z,9.62
2022-11-16T23:01:54.348Z,9.61
2022-11-16T23:06:55.994Z,9.57
2022-11-16T23:12:18.467Z,9.48
2022-11-16T23:17:21.075Z,9.38
2022-11-16T23:22:42.544Z,9.28
2022-11-16T23:28:00.518Z,9.30
2022-11-16T23:33:02.928Z,9.27
2022-11-16T23:38:06.999Z,9.19
2022-11-16T23:43:48.959Z,9.13
2022-11-16T23:48:50.609Z,9.06
2022-11-16T23:53:53.425Z,9.01
2022-11-16T23:58:57.381Z,9.02
